Time;durP1;ratioP1;P1;durP2;ratioP2;P2;SDS_P1;SDS_P2;PMS_P1;PMS_P2;Temp;Humidity;BMP_temperature;BMP_pressure;BME280_temperature;BME280_humidity;BME280_pressure;Samples;Min_cycle;Max_cycle;Signal;HPM_P1;HPM_P2
2023/02/16 00:01:28;;;;;;;40.05;21.00;;;1.70;1.00;;;;;;5071125;28;20383;-57
2023/02/16 00:03:55;;;;;;;38.75;20.35;;;1.80;1.00;;;;;;5070548;28;20380;-58
2023/02/16 00:06:21;;;;;;;42.50;19.93;;;1.80;39.40;;;;;;5071064;28;20458;-58
2023/02/16 00:08:49;;;;;;;36.53;18.17;;;1.80;63.50;;;;;;5071193;28;20435;-57
2023/02/16 00:14:22;;;;;;;35.75;17.73;;;1.70;1.00;;;;;;5070209;28;20509;-57
2023/02/16 00:16:49;;;;;;;35.90;17.55;;;1.60;99.90;;;;;;5070411;28;20390;-57
2023/02/16 00:19:22;;;;;;;34.80;17.27;;;1.50;99.90;;;;;;5070942;28;20538;-57
2023/02/16 00:21:49;;;;;;;35.13;17.55;;;1.50;99.90;;;;;;5070917;28;20375;-58
2023/02/16 00:24:15;;;;;;;38.13;18.20;;;1.40;1.00;;;;;;5071094;28;20410;-57
2023/02/16 00:26:41;;;;;;;34.83;19.48;;;1.40;1.00;;;;;;5072103;28;20446;-58
2023/02/16 00:29:14;;;;;;;38.45;20.02;;;1.40;1.00;;;;;;5069952;28;20408;-58
2023/02/16 00:31:39;;;;;;;39.40;19.17;;;1.40;1.00;;;;;;5071199;28;20380;-57
2023/02/16 00:34:31;;;;;;;36.75;18.27;;;1.40;1.00;;;;;;5070083;28;20387;-58
2023/02/16 00:36:58;;;;;;;37.10;18.80;;;1.50;99.90;;;;;;5068840;28;20417;-57
2023/02/16 00:39:25;;;;;;;40.58;18.90;;;1.50;1.00;;;;;;5071204;28;20453;-57
2023/02/16 00:41:56;;;;;;;40.95;19.15;;;1.50;1.00;;;;;;5070377;28;20423;-57
2023/02/16 00:44:28;;;;;;;37.25;18.67;;;1.50;1.00;;;;;;5071092;28;20727;-57
2023/02/16 00:46:54;;;;;;;37.17;18.47;;;1.60;1.00;;;;;;5070503;28;20426;-57
2023/02/16 00:49:20;;;;;;;39.87;19.50;;;1.50;1.00;;;;;;5070483;28;20960;-57
2023/02/16 00:51:46;;;;;;;37.58;18.52;;;1.50;1.00;;;;;;5070477;28;20469;-58
2023/02/16 00:54:12;;;;;;;39.15;18.90;;;3.40;1.00;;;;;;5070133;28;20751;-58
2023/02/16 00:56:39;;;;;;;40.55;19.40;;;1.40;1.00;;;;;;5070630;28;20380;-57
2023/02/16 00:59:08;;;;;;;36.15;17.25;;;1.50;24.70;;;;;;5069633;28;20384;-57
2023/02/16 01:01:35;;;;;;;35.53;19.43;;;2.40;1.00;;;;;;5070645;28;20833;-57
2023/02/16 01:04:04;;;;;;;40.75;19.17;;;1.40;1.00;;;;;;5069770;28;20725;-57
2023/02/16 01:12:03;;;;;;;41.25;19.95;;;1.50;99.90;;;;;;5069448;28;21077;-58
2023/02/16 01:14:31;;;;;;;35.90;18.70;;;1.60;99.90;;;;;;5069940;28;20462;-57
2023/02/16 01:16:57;;;;;;;37.55;18.95;;;1.80;99.90;;;;;;5069434;28;20415;-57
2023/02/16 01:19:23;;;;;;;42.30;20.05;;;1.70;99.90;;;;;;5069867;28;20411;-57
2023/02/16 01:21:49;;;;;;;41.85;19.13;;;1.60;99.90;;;;;;5069837;28;20804;-58
2023/02/16 01:24:14;;;;;;;36.92;18.98;;;0.70;99.90;;;;;;5069902;28;20833;-57
2023/02/16 01:26:45;;;;;;;39.97;18.67;;;1.60;99.90;;;;;;5070111;28;20438;-57
2023/02/16 01:29:17;;;;;;;36.83;19.63;;;1.60;99.90;;;;;;5069388;28;20402;-58
2023/02/16 01:31:43;;;;;;;34.50;18.75;;;1.60;99.90;;;;;;5069853;28;20383;-58
2023/02/16 01:34:09;;;;;;;37.45;19.13;;;1.50;99.90;;;;;;5069686;28;20371;-58
2023/02/16 01:36:42;;;;;;;36.67;18.83;;;1.70;99.90;;;;;;5069924;28;20525;-57
2023/02/16 01:39:12;;;;;;;37.10;18.95;;;1.80;99.90;;;;;;5069177;28;20453;-58
2023/02/16 01:41:54;;;;;;;35.38;17.75;;;1.70;99.90;;;;;;5070307;28;20380;-57
2023/02/16 01:44:29;;;;;;;37.45;18.30;;;1.70;99.90;;;;;;5069984;28;20438;-57
2023/02/16 01:47:14;;;;;;;41.70;18.42;;;1.80;99.90;;;;;;5069326;28;20387;-58
2023/02/16 01:49:40;;;;;;;40.03;20.50;;;1.90;99.90;;;;;;5069816;28;20451;-57
2023/02/16 01:52:36;;;;;;;37.38;18.67;;;1.80;99.90;;;;;;5068906;28;20430;-58
2023/02/16 01:55:05;;;;;;;40.47;18.60;;;1.80;99.90;;;;;;5068946;28;20402;-57
2023/02/16 01:57:44;;;;;;;38.28;18.38;;;1.60;99.90;;;;;;5069591;28;20502;-58
2023/02/16 02:00:14;;;;;;;34.92;16.83;;;1.50;99.90;;;;;;5068874;28;20372;-58
2023/02/16 02:02:44;;;;;;;43.65;18.77;;;1.40;99.90;;;;;;5069323;28;20880;-57
2023/02/16 02:05:35;;;;;;;35.97;17.80;;;1.30;99.90;;;;;;5069088;28;20468;-58
2023/02/16 02:08:13;;;;;;;40.58;18.13;;;1.30;99.90;;;;;;5069238;28;20403;-57
2023/02/16 02:11:01;;;;;;;36.67;17.00;;;1.20;99.90;;;;;;5069876;28;20384;-57
2023/02/16 02:13:51;;;;;;;36.60;18.65;;;1.20;99.90;;;;;;5069583;28;20756;-57
2023/02/16 02:16:19;;;;;;;35.10;17.77;;;1.20;99.90;;;;;;5069401;28;20368;-58
2023/02/16 02:18:45;;;;;;;39.00;18.17;;;1.30;99.90;;;;;;5069257;28;20429;-57
2023/02/16 02:24:41;;;;;;;38.47;18.08;;;1.40;99.90;;;;;;5068851;28;20537;-58
2023/02/16 02:27:19;;;;;;;34.55;17.85;;;1.40;56.90;;;;;;5068711;28;20376;-57
2023/02/16 02:30:10;;;;;;;37.20;18.50;;;1.30;1.00;;;;;;5072270;28;20413;-57
2023/02/16 02:32:49;;;;;;;38.55;17.95;;;1.40;1.00;;;;;;5073294;28;20470;-57
2023/02/16 02:35:48;;;;;;;36.03;16.92;;;1.40;1.00;;;;;;5072680;28;20406;-57
2023/02/16 02:38:28;;;;;;;35.37;18.33;;;1.30;1.00;;;;;;5072325;28;20399;-57
2023/02/16 02:41:07;;;;;;;34.00;14.63;;;1.30;1.00;;;;;;5072624;28;20394;-57
2023/02/16 02:43:41;;;;;;;31.55;16.70;;;1.50;1.00;;;;;;5072915;28;20898;-57
2023/02/16 02:46:25;;;;;;;32.65;16.38;;;1.40;1.00;;;;;;5072873;28;20473;-57
2023/02/16 02:48:50;;;;;;;33.07;15.00;;;1.40;1.00;;;;;;5072762;28;20482;-57
2023/02/16 02:51:28;;;;;;;32.37;15.10;;;1.20;1.00;;;;;;5072097;28;20541;-57
2023/02/16 03:00:46;;;;;;;34.35;16.63;;;0.80;99.90;;;;;;5061824;28;20445;-57
2023/02/16 03:03:17;;;;;;;33.45;14.98;;;0.60;1.00;;;;;;5070015;28;20402;-57
2023/02/16 03:05:47;;;;;;;26.48;13.90;;;0.60;48.90;;;;;;5072365;28;20877;-57
2023/02/16 03:08:16;;;;;;;31.95;16.20;;;0.60;99.90;;;;;;5072144;28;20400;-57
2023/02/16 03:13:35;;;;;;;26.43;12.87;;;0.60;66.60;;;;;;5072407;28;20737;-57
2023/02/16 03:16:11;;;;;;;34.10;15.25;;;0.70;85.30;;;;;;5071558;28;21229;-57
2023/02/16 03:29:47;;;;;;;32.95;13.75;;;0.90;1.00;;;;;;5072027;28;20473;-58
2023/02/16 03:32:12;;;;;;;32.15;13.88;;;0.80;1.00;;;;;;5071860;28;20781;-57
2023/02/16 03:34:38;;;;;;;31.60;14.23;;;0.80;1.00;;;;;;5072354;28;20382;-57
2023/02/16 03:37:05;;;;;;;30.27;14.48;;;0.90;1.00;;;;;;5071098;28;20384;-58
2023/02/16 03:40:26;;;;;;;32.08;14.10;;;1.00;1.00;;;;;;5071749;28;20420;-57
2023/02/16 03:42:19;;;;;;;29.90;15.20;;;1.10;1.00;;;;;;5070900;28;20408;-57
2023/02/16 03:44:45;;;;;;;31.88;13.95;;;1.20;1.00;;;;;;5071960;28;20471;-57
2023/02/16 03:47:11;;;;;;;30.50;14.17;;;1.30;1.00;;;;;;5070177;28;20688;-57
2023/02/16 03:49:36;;;;;;;30.93;14.80;;;1.40;1.00;;;;;;5071900;28;20453;-57
2023/02/16 03:52:02;;;;;;;30.90;14.70;;;1.40;1.00;;;;;;5071278;28;20390;-57
2023/02/16 03:54:27;;;;;;;28.90;13.33;;;1.30;1.00;;;;;;5071765;28;20392;-57
2023/02/16 03:56:53;;;;;;;25.50;13.30;;;1.20;1.00;;;;;;5071363;28;20392;-57
2023/02/16 03:59:19;;;;;;;25.00;13.80;;;1.20;1.00;;;;;;5071847;28;20538;-57
2023/02/16 04:01:44;;;;;;;31.33;15.03;;;1.20;1.00;;;;;;5071481;28;20429;-57
2023/02/16 04:04:10;;;;;;;29.20;13.60;;;1.20;1.00;;;;;;5071175;28;20394;-58
2023/02/16 04:06:36;;;;;;;24.17;13.60;;;1.20;1.00;;;;;;5071994;28;20878;-58
2023/02/16 04:09:01;;;;;;;25.50;13.40;;;1.20;1.00;;;;;;5070716;28;20404;-57
2023/02/16 04:14:12;;;;;;;23.70;12.07;;;1.40;10.40;;;;;;5071183;28;20419;-57
2023/02/16 04:16:37;;;;;;;32.20;13.73;;;1.50;1.00;;;;;;5071179;28;20419;-57
2023/02/16 04:19:03;;;;;;;26.10;12.18;;;1.40;1.00;;;;;;5070582;28;20392;-58
2023/02/16 04:21:28;;;;;;;25.63;12.30;;;1.30;1.00;;;;;;5072198;28;20422;-57
2023/02/16 04:23:54;;;;;;;29.17;12.63;;;1.40;48.70;;;;;;5070293;28;20383;-57
2023/02/16 04:26:19;;;;;;;26.52;12.52;;;1.50;91.30;;;;;;5071328;28;20486;-57
2023/02/16 04:28:45;;;;;;;26.43;12.50;;;1.50;98.10;;;;;;5071135;28;20448;-57
2023/02/16 04:31:11;;;;;;;25.60;11.70;;;1.60;3.40;;;;;;5067992;28;20601;-57
2023/02/16 04:33:36;;;;;;;26.43;12.40;;;1.70;1.00;;;;;;5051571;28;20386;-57
2023/02/16 04:36:02;;;;;;;22.92;11.95;;;1.70;1.00;;;;;;5050333;28;20382;-57
2023/02/16 04:38:27;;;;;;;29.20;12.60;;;1.70;99.90;;;;;;5051509;28;20393;-57
2023/02/16 04:40:53;;;;;;;26.87;12.20;;;1.70;99.90;;;;;;5053503;28;20787;-57
2023/02/16 04:43:18;;;;;;;26.02;13.63;;;1.70;99.90;;;;;;5051048;28;20393;-57
2023/02/16 04:45:44;;;;;;;24.43;13.17;;;1.60;99.90;;;;;;5051087;28;20385;-57
2023/02/16 04:48:09;;;;;;;24.30;11.82;;;1.70;1.00;;;;;;5050346;28;20412;-57
2023/02/16 04:50:35;;;;;;;26.77;11.90;;;1.70;99.90;;;;;;5053308;28;20441;-57
2023/02/16 04:53:01;;;;;;;25.20;12.00;;;1.70;37.40;;;;;;5069540;28;20879;-57
2023/02/16 04:55:26;;;;;;;21.40;11.27;;;1.70;99.90;;;;;;5071172;28;20417;-57
2023/02/16 04:57:52;;;;;;;23.60;11.47;;;1.70;99.90;;;;;;5070829;28;20398;-57
2023/02/16 05:00:18;;;;;;;25.02;11.93;;;1.70;99.90;;;;;;5068640;28;20380;-58
2023/02/16 05:02:43;;;;;;;27.15;11.88;;;1.60;1.00;;;;;;5069196;28;20437;-57
2023/02/16 05:05:10;;;;;;;25.40;11.83;;;1.60;1.00;;;;;;5069885;28;20383;-57
2023/02/16 05:07:35;;;;;;;22.42;11.68;;;1.60;1.00;;;;;;5070616;28;20367;-57
2023/02/16 05:10:01;;;;;;;22.60;11.37;;;2.50;99.90;;;;;;5070400;28;20403;-57
2023/02/16 05:15:11;;;;;;;26.48;12.52;;;1.30;99.90;;;;;;5049958;28;20451;-57
2023/02/16 05:17:36;;;;;;;23.53;11.03;;;1.30;99.90;;;;;;5050669;28;20389;-57
2023/02/16 05:20:02;;;;;;;24.60;11.55;;;1.30;99.90;;;;;;5050065;28;20388;-57
2023/02/16 05:22:32;;;;;;;19.97;10.63;;;1.30;99.90;;;;;;5068010;28;20380;-57
2023/02/16 05:24:57;;;;;;;23.42;11.20;;;1.30;1.00;;;;;;5069279;28;20860;-57
2023/02/16 05:27:27;;;;;;;20.90;11.20;;;1.20;1.00;;;;;;5063826;28;20392;-57
2023/02/16 05:29:53;;;;;;;25.17;12.15;;;1.20;1.00;;;;;;5050143;28;20474;-58
2023/02/16 05:32:20;;;;;;;23.35;10.90;;;1.20;99.90;;;;;;5048922;28;20504;-57
2023/02/16 05:34:46;;;;;;;22.30;11.00;;;1.30;99.90;;;;;;5049888;28;20468;-57
2023/02/16 05:37:16;;;;;;;25.70;11.95;;;1.20;1.00;;;;;;5049227;28;20403;-57
2023/02/16 05:39:42;;;;;;;22.88;11.18;;;1.20;1.00;;;;;;5050020;28;20472;-57
2023/02/16 05:42:08;;;;;;;22.52;11.95;;;2.70;99.90;;;;;;5049228;28;20792;-56
2023/02/16 05:44:33;;;;;;;25.55;11.90;;;1.20;1.00;;;;;;5050670;28;20365;-57
2023/02/16 05:46:59;;;;;;;25.75;12.95;;;1.20;1.00;;;;;;5049442;28;20831;-57
2023/02/16 05:49:24;;;;;;;22.50;12.10;;;1.20;1.00;;;;;;5050122;28;20451;-57
2023/02/16 05:51:50;;;;;;;22.48;11.60;;;1.20;1.00;;;;;;5050041;28;20443;-56
2023/02/16 05:54:16;;;;;;;26.17;13.07;;;1.10;1.00;;;;;;5064263;28;20386;-54
2023/02/16 05:56:46;;;;;;;26.90;11.60;;;1.10;99.90;;;;;;5085959;28;20511;-54
2023/02/16 05:59:12;;;;;;;29.77;13.30;;;1.20;99.90;;;;;;5089057;28;20382;-57
2023/02/16 06:01:39;;;;;;;24.92;12.13;;;1.30;99.90;;;;;;5087974;28;20392;-54
2023/02/16 06:04:08;;;;;;;25.52;12.60;;;1.40;1.00;;;;;;5088525;28;20800;-54
2023/02/16 06:06:36;;;;;;;28.33;12.13;;;1.50;1.00;;;;;;5089070;28;20382;-54
2023/02/16 06:09:03;;;;;;;21.88;12.40;;;1.50;1.00;;;;;;5088796;28;20406;-54
2023/02/16 06:11:37;;;;;;;22.45;11.00;;;1.50;99.90;;;;;;5088195;28;20378;-54
2023/02/16 06:14:03;;;;;;;25.48;11.90;;;1.50;99.90;;;;;;5069189;28;20394;-55
2023/02/16 06:16:31;;;;;;;20.77;11.88;;;1.70;1.00;;;;;;5076515;28;20474;-54
2023/02/16 06:18:57;;;;;;;20.65;10.70;;;1.60;99.90;;;;;;5067423;28;20387;-59
2023/02/16 06:21:23;;;;;;;24.10;10.95;;;1.60;99.90;;;;;;5077646;28;20443;-55
2023/02/16 06:23:49;;;;;;;21.13;10.65;;;1.60;1.00;;;;;;5083731;28;20386;-54
2023/02/16 06:26:15;;;;;;;21.95;11.10;;;1.50;1.00;;;;;;5088523;28;20843;-54
2023/02/16 06:28:41;;;;;;;26.55;12.05;;;1.40;1.00;;;;;;5090370;28;20409;-54
2023/02/16 06:31:07;;;;;;;21.45;11.45;;;1.40;99.90;;;;;;5088136;28;20382;-54
2023/02/16 06:33:32;;;;;;;20.17;10.30;;;1.40;99.90;;;;;;5089336;28;20384;-54
2023/02/16 06:35:58;;;;;;;25.25;11.48;;;1.50;99.90;;;;;;5066919;28;20395;-56
2023/02/16 06:38:24;;;;;;;18.97;10.40;;;1.50;69.20;;;;;;5056008;28;20519;-56
2023/02/16 06:40:53;;;;;;;27.10;11.57;;;1.40;1.00;;;;;;5049435;28;20378;-56
2023/02/16 06:43:19;;;;;;;22.42;12.23;;;1.40;1.00;;;;;;5048111;28;20378;-56
2023/02/16 06:45:45;;;;;;;23.02;10.57;;;1.40;99.90;;;;;;5049353;28;20385;-56
2023/02/16 06:48:11;;;;;;;23.42;11.68;;;1.40;99.90;;;;;;5048293;28;20385;-56
2023/02/16 06:50:37;;;;;;;20.08;10.52;;;1.40;99.90;;;;;;5049193;28;20413;-56
2023/02/16 06:53:02;;;;;;;21.10;10.95;;;1.50;90.80;;;;;;5047995;28;20381;-56
2023/02/16 06:55:30;;;;;;;24.30;11.67;;;1.50;1.00;;;;;;5048465;28;20464;-56
2023/02/16 06:57:56;;;;;;;23.88;10.98;;;3.40;1.00;;;;;;5048639;28;20412;-56
2023/02/16 07:00:21;;;;;;;23.08;11.35;;;1.60;1.00;;;;;;5048683;28;20706;-57
2023/02/16 07:02:47;;;;;;;22.20;11.60;;;1.70;1.00;;;;;;5048723;28;20405;-56
2023/02/16 07:05:14;;;;;;;25.55;11.27;;;1.80;99.90;;;;;;5058201;28;20482;-56
2023/02/16 07:07:39;;;;;;;18.80;10.63;;;1.80;56.40;;;;;;5067993;28;20391;-56
2023/02/16 07:10:06;;;;;;;25.50;11.53;;;1.90;1.00;;;;;;5067992;28;20395;-55
2023/02/16 07:12:31;;;;;;;23.88;10.60;;;1.90;1.00;;;;;;5069197;28;20401;-55
2023/02/16 07:14:57;;;;;;;21.20;11.27;;;1.80;73.80;;;;;;5069618;28;20760;-56
2023/02/16 07:17:23;;;;;;;22.73;10.93;;;2.00;39.70;;;;;;5072347;28;20418;-56
2023/02/16 07:19:48;;;;;;;22.63;10.80;;;2.10;1.00;;;;;;5072975;28;20419;-56
2023/02/16 07:22:16;;;;;;;25.60;10.93;;;2.30;1.00;;;;;;5072003;28;20391;-55
2023/02/16 07:24:42;;;;;;;22.05;11.40;;;2.50;99.90;;;;;;5072439;28;20411;-56
2023/02/16 07:27:08;;;;;;;22.93;11.90;;;2.70;99.90;;;;;;5071955;28;20395;-56
2023/02/16 07:29:35;;;;;;;21.63;12.50;;;2.90;99.90;;;;;;5072096;28;21177;-55
2023/02/16 07:32:02;;;;;;;21.40;10.52;;;3.80;41.30;;;;;;5071148;28;20541;-56
2023/02/16 07:34:28;;;;;;;22.73;11.60;;;6.00;16.30;;;;;;5072254;28;20383;-57
2023/02/16 07:36:54;;;;;;;22.55;10.40;;;6.40;99.90;;;;;;5070951;28;20888;-57
2023/02/16 07:39:19;;;;;;;18.83;10.57;;;7.90;1.00;;;;;;5071928;28;20478;-57
2023/02/16 07:41:45;;;;;;;22.17;11.10;;;9.20;1.00;;;;;;5072206;28;20879;-57
2023/02/16 07:44:11;;;;;;;19.05;10.20;;;10.30;1.00;;;;;;5071656;28;20418;-57
2023/02/16 07:46:36;;;;;;;19.20;11.10;;;11.20;99.90;;;;;;5071049;28;20764;-58
2023/02/16 07:49:02;;;;;;;18.92;10.25;;;11.80;99.90;;;;;;5071439;28;20407;-58
2023/02/16 07:51:30;;;;;;;20.80;11.57;;;12.20;99.90;;;;;;5072001;28;20543;-58
2023/02/16 07:53:57;;;;;;;24.42;12.25;;;12.40;99.90;;;;;;5071902;28;20553;-58
2023/02/16 07:56:25;;;;;;;20.52;11.82;;;13.10;99.90;;;;;;5071271;28;20418;-58
2023/02/16 07:58:52;;;;;;;19.53;13.13;;;13.60;99.90;;;;;;5071705;28;20419;-58
2023/02/16 08:01:18;;;;;;;25.27;14.00;;;14.00;99.90;;;;;;5070877;28;20525;-58
2023/02/16 08:03:44;;;;;;;20.27;13.50;;;13.90;99.90;;;;;;5071617;28;20372;-58
2023/02/16 08:06:10;;;;;;;22.63;15.30;;;14.20;99.90;;;;;;5070983;28;20367;-58
2023/02/16 08:08:36;;;;;;;27.50;16.03;;;14.60;99.90;;;;;;5071606;28;20411;-56
2023/02/16 08:11:28;;;;;;;20.35;15.07;;;14.30;99.90;;;;;;5070840;28;20383;-58
2023/02/16 08:13:54;;;;;;;23.30;16.60;;;14.30;99.90;;;;;;5070373;28;20403;-58
2023/02/16 08:16:25;;;;;;;24.20;18.75;;;14.40;99.90;;;;;;5070458;28;20380;-58
2023/02/16 08:18:51;;;;;;;23.65;17.58;;;14.70;99.90;;;;;;5071682;28;20383;-59
2023/02/16 08:21:20;;;;;;;24.73;19.15;;;15.00;99.90;;;;;;5070603;28;20387;-58
2023/02/16 08:23:54;;;;;;;25.05;20.35;;;15.10;99.90;;;;;;5070091;28;20434;-58
2023/02/16 08:26:22;;;;;;;23.90;21.30;;;15.70;99.90;;;;;;5069234;28;20911;-59
2023/02/16 08:28:49;;;;;;;28.83;21.75;;;16.40;99.90;;;;;;5071100;28;20486;-59
2023/02/16 08:31:16;;;;;;;25.08;22.52;;;;;;;;;;5070596;28;20869;-59
2023/02/16 08:33:42;;;;;;;24.95;22.40;;;16.70;99.90;;;;;;5070998;28;20450;-60
2023/02/16 08:36:19;;;;;;;25.27;22.73;;;16.90;99.90;;;;;;5070100;28;20430;-59
2023/02/16 08:38:49;;;;;;;28.70;25.70;;;17.10;99.90;;;;;;5071535;28;20388;-59
2023/02/16 08:41:19;;;;;;;20.10;13.00;;;17.10;99.90;;;;;;5070585;28;20395;-59
2023/02/16 08:43:45;;;;;;;20.57;11.40;;;18.00;99.90;;;;;;5070586;28;20862;-60
2023/02/16 08:46:11;;;;;;;22.55;12.82;;;18.50;99.90;;;;;;5070197;28;20419;-59
2023/02/16 08:48:38;;;;;;;26.13;23.42;;;18.20;99.90;;;;;;5071164;28;20445;-59
2023/02/16 08:51:05;;;;;;;27.55;20.33;;;18.10;99.90;;;;;;5069920;28;20434;-59
2023/02/16 08:53:32;;;;;;;22.45;11.57;;;19.50;99.90;;;;;;5070562;28;20419;-59
2023/02/16 08:56:01;;;;;;;23.10;17.10;;;19.50;99.90;;;;;;5069801;28;20403;-59
2023/02/16 08:58:28;;;;;;;22.10;15.32;;;19.90;99.90;;;;;;5070855;28;20427;-60
2023/02/16 09:00:55;;;;;;;20.02;11.70;;;20.00;99.90;;;;;;5070676;28;20391;-59
2023/02/16 09:03:21;;;;;;;21.43;12.27;;;19.90;99.90;;;;;;5069822;28;20481;-58
2023/02/16 09:05:51;;;;;;;19.65;11.35;;;20.60;99.90;;;;;;5070384;28;20858;-58
2023/02/16 09:08:18;;;;;;;19.92;11.77;;;20.30;99.90;;;;;;5069350;28;20388;-59
2023/02/16 09:10:43;;;;;;;24.05;13.00;;;20.20;99.90;;;;;;5070246;28;20394;-59
2023/02/16 09:13:12;;;;;;;19.98;12.35;;;21.40;99.90;;;;;;5069300;28;20745;-58
2023/02/16 09:15:39;;;;;;;22.10;12.82;;;21.60;99.90;;;;;;5069808;28;20930;-58
2023/02/16 09:18:06;;;;;;;20.80;11.88;;;21.10;99.90;;;;;;5069349;28;20853;-58
2023/02/16 09:20:31;;;;;;;21.27;11.70;;;21.10;99.90;;;;;;5070570;28;20477;-58
2023/02/16 09:22:57;;;;;;;28.40;18.52;;;21.10;99.90;;;;;;5069575;28;20434;-58
2023/02/16 09:25:24;;;;;;;23.48;12.00;;;21.40;99.90;;;;;;5068904;28;20438;-58
2023/02/16 09:27:50;;;;;;;27.10;24.20;;;21.50;99.90;;;;;;5069917;28;20791;-58
2023/02/16 09:30:15;;;;;;;31.33;28.33;;;21.70;99.90;;;;;;5069445;28;20411;-58
2023/02/16 09:32:41;;;;;;;30.57;27.57;;;21.80;99.90;;;;;;5070167;28;20395;-58
2023/02/16 09:35:07;;;;;;;31.77;28.40;;;22.00;99.90;;;;;;5069121;28;20440;-58
2023/02/16 09:37:32;;;;;;;31.50;28.27;;;22.80;99.90;;;;;;5069523;28;20387;-58
2023/02/16 09:39:58;;;;;;;26.55;23.70;;;22.50;99.90;;;;;;5069697;28;20880;-58
2023/02/16 09:42:41;;;;;;;27.05;24.15;;;22.30;99.90;;;;;;5070150;28;20385;-58
2023/02/16 09:45:10;;;;;;;24.60;21.35;;;21.50;99.90;;;;;;5069490;28;20419;-58
2023/02/16 09:47:39;;;;;;;24.60;17.05;;;21.10;99.90;;;;;;5069938;28;20449;-58
2023/02/16 09:50:14;;;;;;;26.17;18.73;;;22.40;99.90;;;;;;5069286;28;20411;-58
2023/02/16 09:53:10;;;;;;;24.47;21.77;;;23.00;99.90;;;;;;5069928;28;20379;-60
2023/02/16 09:56:02;;;;;;;29.60;26.45;;;22.90;99.90;;;;;;5069926;28;20414;-58
2023/02/16 09:58:52;;;;;;;24.70;13.80;;;21.70;99.90;;;;;;5070074;28;20392;-58
2023/02/16 10:02:02;;;;;;;25.27;20.35;;;22.10;99.90;;;;;;5069631;28;20633;-58
2023/02/16 10:04:49;;;;;;;22.77;15.75;;;22.20;99.90;;;;;;5047793;28;20440;-58
2023/02/16 10:07:42;;;;;;;21.40;12.20;;;22.80;99.90;;;;;;5056954;28;20391;-59
2023/02/16 10:10:16;;;;;;;25.60;22.95;;;23.00;99.90;;;;;;5068846;28;20490;-58
2023/02/16 10:12:49;;;;;;;38.20;12.55;;;23.50;99.90;;;;;;5069888;28;20376;-58
2023/02/16 10:15:21;;;;;;;28.40;25.60;;;23.60;99.90;;;;;;5068766;28;20449;-58
2023/02/16 10:18:03;;;;;;;32.42;29.55;;;23.60;99.90;;;;;;5069066;28;20799;-58
2023/02/16 10:20:51;;;;;;;25.35;17.83;;;24.00;99.90;;;;;;5069447;28;20375;-60
2023/02/16 10:23:25;;;;;;;23.23;14.00;;;24.40;99.90;;;;;;5068991;28;20399;-61
2023/02/16 10:26:28;;;;;;;25.02;17.80;;;23.60;99.90;;;;;;5069054;28;20404;-60
2023/02/16 10:28:57;;;;;;;23.05;18.08;;;23.90;99.90;;;;;;5062090;28;20477;-60
2023/02/16 10:31:46;;;;;;;20.30;17.58;;;24.70;99.90;;;;;;5069528;28;20422;-60
2023/02/16 10:34:35;;;;;;;28.10;25.65;;;24.70;99.90;;;;;;5069288;28;20394;-60
2023/02/16 10:37:18;;;;;;;19.27;12.60;;;24.40;99.90;;;;;;5068709;28;20398;-60
2023/02/16 10:40:00;;;;;;;15.17;7.20;;;23.30;99.90;;;;;;5069613;28;20392;-58
2023/02/16 10:42:59;;;;;;;13.70;7.10;;;22.80;99.90;;;;;;5068362;28;20741;-58
2023/02/16 10:45:39;;;;;;;16.95;8.73;;;22.50;99.90;;;;;;5069195;28;20386;-58
2023/02/16 10:48:04;;;;;;;18.30;9.15;;;22.60;99.90;;;;;;5068405;28;20388;-58
2023/02/16 10:50:51;;;;;;;13.70;7.50;;;22.60;99.90;;;;;;5071596;28;20440;-58
2023/02/16 10:53:22;;;;;;;14.52;7.30;;;22.30;99.90;;;;;;5072177;28;20375;-58
2023/02/16 10:55:48;;;;;;;14.93;8.05;;;21.80;99.90;;;;;;5072832;28;20407;-58
2023/02/16 10:58:38;;;;;;;15.75;10.00;;;21.70;99.90;;;;;;5072002;28;20379;-58
2023/02/16 11:01:18;;;;;;;19.60;17.70;;;21.50;99.90;;;;;;5072763;28;20418;-57
2023/02/16 11:03:49;;;;;;;19.53;17.73;;;20.00;99.90;;;;;;5072912;28;20376;-60
2023/02/16 11:06:16;;;;;;;19.88;17.77;;;19.90;99.90;;;;;;5072198;28;20386;-60
2023/02/16 11:08:56;;;;;;;21.05;16.25;;;19.70;99.90;;;;;;5072890;28;20498;-59
2023/02/16 11:11:35;;;;;;;19.25;17.27;;;19.70;99.90;;;;;;5072107;28;20376;-59
2023/02/16 11:14:08;;;;;;;19.20;17.20;;;19.60;99.90;;;;;;5072508;28;20842;-59
2023/02/16 11:16:34;;;;;;;17.58;15.68;;;19.70;99.90;;;;;;5072572;28;20721;-60
2023/02/16 11:19:17;;;;;;;19.45;16.10;;;19.50;99.90;;;;;;5071728;28;20778;-60
2023/02/16 11:21:42;;;;;;;16.55;15.05;;;19.80;99.90;;;;;;5072227;28;20801;-60
2023/02/16 11:24:12;;;;;;;17.00;15.40;;;18.90;99.90;;;;;;5071772;28;20461;-59
2023/02/16 11:26:38;;;;;;;16.00;14.40;;;19.70;99.90;;;;;;5070960;28;20395;-60
2023/02/16 11:29:18;;;;;;;16.92;15.13;;;20.40;99.90;;;;;;5071491;28;20892;-59
2023/02/16 11:31:45;;;;;;;15.85;14.25;;;20.70;99.90;;;;;;5072622;28;20372;-60
2023/02/16 11:34:38;;;;;;;15.93;14.23;;;20.50;99.90;;;;;;5071782;28;20388;-60
2023/02/16 11:37:27;;;;;;;15.75;14.25;;;20.40;99.90;;;;;;5071977;28;20372;-59
2023/02/16 11:40:06;;;;;;;16.55;14.90;;;20.10;99.90;;;;;;5072050;28;20388;-60
2023/02/16 11:42:39;;;;;;;15.90;14.30;;;19.90;99.90;;;;;;5072180;28;20427;-60
2023/02/16 11:45:07;;;;;;;16.80;15.00;;;19.30;99.90;;;;;;5071371;28;20383;-59
2023/02/16 11:47:40;;;;;;;15.93;14.43;;;18.70;99.90;;;;;;5071757;28;20449;-59
2023/02/16 11:50:27;;;;;;;19.00;14.50;;;18.20;99.90;;;;;;5071527;28;20400;-60
2023/02/16 11:52:56;;;;;;;16.27;14.65;;;18.20;99.90;;;;;;5071926;28;20392;-59
2023/02/16 11:55:25;;;;;;;16.38;14.68;;;18.10;99.90;;;;;;5071151;28;20455;-59
2023/02/16 11:57:52;;;;;;;14.90;13.40;;;18.00;99.90;;;;;;5072281;28;20959;-60
2023/02/16 12:00:21;;;;;;;15.75;13.52;;;18.00;99.90;;;;;;5070759;28;20438;-59
2023/02/16 12:03:10;;;;;;;15.10;13.55;;;18.10;99.90;;;;;;5070818;28;20385;-59
2023/02/16 12:05:40;;;;;;;19.77;14.77;;;17.90;99.90;;;;;;5071461;28;20384;-59
2023/02/16 12:08:32;;;;;;;15.68;13.85;;;17.70;99.90;;;;;;5071231;28;20453;-59
2023/02/16 12:11:07;;;;;;;17.20;14.60;;;17.80;99.90;;;;;;5071040;28;20478;-58
2023/02/16 12:13:55;;;;;;;18.13;15.27;;;17.80;99.90;;;;;;5071627;28;20379;-58
2023/02/16 12:16:46;;;;;;;16.58;14.88;;;17.80;99.90;;;;;;5070734;28;20466;-58
2023/02/16 12:19:33;;;;;;;17.20;15.40;;;18.20;99.90;;;;;;5071070;28;20383;-58
2023/02/16 12:22:17;;;;;;;17.27;15.48;;;18.20;99.90;;;;;;5071486;28;20434;-58
2023/02/16 12:24:43;;;;;;;15.98;14.20;;;18.10;99.90;;;;;;5071228;28;20419;-57
2023/02/16 12:27:18;;;;;;;16.27;14.57;;;18.00;99.90;;;;;;5070734;28;20384;-58
2023/02/16 12:30:02;;;;;;;18.35;14.80;;;18.50;99.90;;;;;;5071397;28;20470;-58
2023/02/16 12:32:44;;;;;;;17.63;14.13;;;18.20;99.90;;;;;;5071550;28;20872;-58
2023/02/16 12:35:13;;;;;;;16.77;14.80;;;18.00;99.90;;;;;;5070436;28;20430;-58
2023/02/16 12:37:56;;;;;;;17.58;15.70;;;17.90;99.90;;;;;;5071543;28;20454;-58
2023/02/16 12:40:23;;;;;;;17.83;15.23;;;18.20;99.90;;;;;;5070886;28;20367;-58
2023/02/16 12:43:06;;;;;;;24.45;15.90;;;18.10;99.90;;;;;;5071016;28;20415;-58
2023/02/16 12:45:36;;;;;;;16.88;15.15;;;17.90;99.90;;;;;;5071070;28;20402;-58
2023/02/16 12:48:40;;;;;;;19.27;16.38;;;17.70;99.90;;;;;;5070773;28;20852;-58
2023/02/16 12:51:10;;;;;;;16.25;14.27;;;17.90;99.90;;;;;;5068522;28;20412;-58
2023/02/16 12:53:58;;;;;;;20.92;15.50;;;18.20;99.90;;;;;;5071283;28;20432;-59
2023/02/16 12:56:35;;;;;;;18.17;15.88;;;18.30;99.90;;;;;;5068385;28;20440;-58
2023/02/16 12:59:13;;;;;;;17.05;15.35;;;18.20;99.90;;;;;;5069921;28;20414;-58
2023/02/16 13:01:41;;;;;;;18.20;15.43;;;17.90;99.90;;;;;;5070726;28;20837;-58
2023/02/16 13:04:20;;;;;;;17.60;15.70;;;18.00;99.90;;;;;;5069329;28;20412;-58
2023/02/16 13:07:02;;;;;;;26.35;18.20;;;18.00;99.90;;;;;;5070486;28;20477;-58
2023/02/16 13:09:42;;;;;;;16.43;14.83;;;18.10;99.90;;;;;;5070019;28;20400;-58
2023/02/16 13:12:33;;;;;;;32.92;18.85;;;18.20;99.90;;;;;;5069342;28;20392;-58
2023/02/16 13:15:19;;;;;;;20.07;15.80;;;18.20;99.90;;;;;;5070095;28;20475;-57
2023/02/16 13:17:57;;;;;;;19.20;15.60;;;18.80;99.90;;;;;;5071045;28;20376;-58
2023/02/16 13:20:24;;;;;;;15.48;13.70;;;17.90;99.90;;;;;;5069589;28;20976;-58
2023/02/16 13:23:10;;;;;;;17.00;14.02;;;17.70;99.90;;;;;;5070525;28;20460;-58
2023/02/16 13:26:13;;;;;;;15.82;14.23;;;17.60;99.90;;;;;;5070798;28;20418;-58
2023/02/16 13:29:06;;;;;;;17.02;14.95;;;17.70;99.90;;;;;;5070688;28;20403;-58
2023/02/16 13:32:05;;;;;;;20.58;14.32;;;17.40;99.90;;;;;;5070056;28;20478;-58
2023/02/16 13:34:58;;;;;;;15.48;13.88;;;17.30;99.90;;;;;;5066477;28;20445;-58
2023/02/16 13:37:47;;;;;;;17.70;14.65;;;17.40;99.90;;;;;;5069736;28;20440;-58